AFL11 ULLI-UUEE
Flight info
| Callsign | AFL11 |
|---|---|
| Flight time | N/A |
| Altitude | 37000 |
| Route | SUGIN1B SUGIN T873 NIRGI T73 NAMIN NAMIN3F |
| Aircraft | A20N/M-SDE2E3FGHIRWXY/LB1 |
Departure
| Time | 2026-04-30 11:14 |
|---|---|
| Airport | Pulkovo Airport (ULLI) |
Arrival
| Time | N/A |
|---|---|
| Airport | Sheremetyevo International Airport (UUEE) |
| Time | Latitude | Longitude | Altitude | Speed | Heading |
|---|---|---|---|---|---|
| 2026-04-30 10:52 | 59.79815 | 30.26653 | 89 ft | 0 kts | 107° |
| 2026-04-30 11:05 | 59.79818 | 30.26629 | 89 ft | 2 kts | 107° |
| 2026-04-30 11:06 | 59.79823 | 30.26598 | 88 ft | 2 kts | 110° |
| 2026-04-30 11:06 | 59.79830 | 30.26569 | 89 ft | 2 kts | 128° |
| 2026-04-30 11:06 | 59.79843 | 30.26549 | 89 ft | 2 kts | 153° |
| 2026-04-30 11:06 | 59.79858 | 30.26550 | 89 ft | 2 kts | 217° |
| 2026-04-30 11:07 | 59.79870 | 30.26567 | 89 ft | 1 kts | 203° |
| 2026-04-30 11:07 | 59.79872 | 30.26568 | 87 ft | 0 kts | 201° |
| 2026-04-30 11:08 | 59.79867 | 30.26565 | 89 ft | 1 kts | 199° |
| 2026-04-30 11:08 | 59.79850 | 30.26557 | 89 ft | 7 kts | 194° |
| 2026-04-30 11:08 | 59.79800 | 30.26528 | 89 ft | 8 kts | 197° |
| 2026-04-30 11:09 | 59.79753 | 30.26501 | 88 ft | 7 kts | 197° |
| 2026-04-30 11:09 | 59.79677 | 30.26456 | 85 ft | 14 kts | 193° |
| 2026-04-30 11:09 | 59.79584 | 30.26399 | 85 ft | 14 kts | 195° |
| 2026-04-30 11:09 | 59.79505 | 30.26365 | 88 ft | 6 kts | 157° |
| 2026-04-30 11:10 | 59.79485 | 30.26402 | 88 ft | 4 kts | 135° |
| 2026-04-30 11:10 | 59.79446 | 30.26421 | 87 ft | 9 kts | 177° |
| 2026-04-30 11:10 | 59.79435 | 30.26415 | 90 ft | 0 kts | 199° |
| 2026-04-30 11:11 | 59.79409 | 30.26398 | 87 ft | 6 kts | 199° |
| 2026-04-30 11:11 | 59.79371 | 30.26375 | 85 ft | 8 kts | 195° |
| 2026-04-30 11:11 | 59.79332 | 30.26306 | 89 ft | 6 kts | 250° |
| 2026-04-30 11:12 | 59.79332 | 30.26267 | 88 ft | 2 kts | 282° |
| 2026-04-30 11:12 | 59.79335 | 30.26246 | 86 ft | 0 kts | 282° |
| 2026-04-30 11:13 | 59.79340 | 30.26211 | 89 ft | 17 kts | 286° |
| 2026-04-30 11:13 | 59.79451 | 30.25472 | 89 ft | 91 kts | 287° |
| 2026-04-30 11:13 | 59.79689 | 30.23871 | 86 ft | 151 kts | 286° |
| 2026-04-30 11:13 | 59.80021 | 30.21716 | 497 ft | 158 kts | 287° |
| 2026-04-30 11:14 | 59.80302 | 30.19638 | 1141 ft | 158 kts | 281° |
| 2026-04-30 11:14 | 59.80618 | 30.17320 | 1451 ft | 192 kts | 285° |
| 2026-04-30 11:14 | 59.81024 | 30.14645 | 1994 ft | 209 kts | 287° |
| 2026-04-30 11:14 | 59.81451 | 30.11843 | 2833 ft | 216 kts | 287° |
| 2026-04-30 11:15 | 59.81884 | 30.08972 | 3939 ft | 216 kts | 286° |
| 2026-04-30 11:15 | 59.82313 | 30.06083 | 4981 ft | 218 kts | 286° |
| 2026-04-30 11:15 | 59.82721 | 30.03183 | 5912 ft | 221 kts | 281° |
| 2026-04-30 11:15 | 59.82776 | 30.00106 | 6799 ft | 225 kts | 258° |
| 2026-04-30 11:16 | 59.82138 | 29.97324 | 7652 ft | 228 kts | 230° |
| 2026-04-30 11:16 | 59.80856 | 29.95444 | 8500 ft | 232 kts | 204° |
| 2026-04-30 11:16 | 59.79284 | 29.94367 | 9171 ft | 246 kts | 196° |
| 2026-04-30 11:16 | 59.77598 | 29.93450 | 9909 ft | 255 kts | 195° |
| 2026-04-30 11:17 | 59.75848 | 29.92908 | 10721 ft | 261 kts | 180° |
| 2026-04-30 11:17 | 59.74027 | 29.93743 | 11251 ft | 280 kts | 150° |